Disclaimer

Please do not use the information listed here in-flight or in-navigation, as they are not provided to us by the airports but are provided by volunteers, so they might be outdated.

Search


Regions


Airport information page

Radio informations:
Tower (TWR) - 120.175 MHz
BREMEN RADAR - 131.325 MHz
BREMEN INFO - 119.825 MHz
Ground (GND) - 121.95 MHz
Director (DIR) - 119.6 MHz

Airport informations:
Latitude: 52° 27' 39.80" N
Longitude: 009° 41' 06.28" E
Elevation: 183 feet - 56 meters
Operating hours: 24 hour operations
Operating agency: Civil government, landing fees and diplomatic clearance may be required
Timezone: UTC+1(+2DT) - Last Sunday in March to last Sunday in October
Fuel: Jet A1, without icing nhibitor.

100/130 MIL Spec, low lead, aviation gasoline (BLUE)

Runway information:
09C/27C - 2559 x 74 feet< - >780 x 23 meters
09R/27L - 7677 x 148 feet< - >2340 x 45 meters
09L/27R - 12467 x 148 feet< - >3800 x 45 meters

Recent METARs:
EDDV 191950Z 08018KT 9999 SCT023 04/00 Q1020 TEMPO 08015G25KT
EDDV 192020Z 09017KT 9999 BKN023 04/M00 Q1020 TEMPO 08015G25KT
EDDV 192050Z 09014KT 9999 BKN021 04/M00 Q1020 TEMPO 08015G25KT

Airport on the map: